sensor_id;sensor_type;location;lat;lon;timestamp;P1;durP1;ratioP1;P2;durP2;ratioP2
48578;SDS011;34357;51.948;6.132;2022-09-09T00:06:50;7.63;;;4.70;;
48578;SDS011;34357;51.948;6.132;2022-09-09T00:09:21;10.43;;;4.53;;
48578;SDS011;34357;51.948;6.132;2022-09-09T00:11:52;6.78;;;3.88;;
48578;SDS011;34357;51.948;6.132;2022-09-09T00:14:34;5.35;;;3.20;;
48578;SDS011;34357;51.948;6.132;2022-09-09T00:20:00;6.50;;;3.38;;
48578;SDS011;34357;51.948;6.132;2022-09-09T00:22:30;6.85;;;3.65;;
48578;SDS011;34357;51.948;6.132;2022-09-09T00:25:08;7.32;;;3.85;;
48578;SDS011;34357;51.948;6.132;2022-09-09T00:27:48;8.80;;;4.10;;
48578;SDS011;34357;51.948;6.132;2022-09-09T00:33:33;6.90;;;3.20;;
48578;SDS011;34357;51.948;6.132;2022-09-09T00:35:41;5.28;;;3.35;;
48578;SDS011;34357;51.948;6.132;2022-09-09T00:43:57;3.65;;;2.58;;
48578;SDS011;34357;51.948;6.132;2022-09-09T00:54:56;4.15;;;1.98;;
48578;SDS011;34357;51.948;6.132;2022-09-09T00:57:38;3.03;;;1.90;;
48578;SDS011;34357;51.948;6.132;2022-09-09T01:00:23;3.08;;;1.98;;
48578;SDS011;34357;51.948;6.132;2022-09-09T01:05:48;5.18;;;2.00;;
48578;SDS011;34357;51.948;6.132;2022-09-09T01:08:45;7.65;;;2.20;;
48578;SDS011;34357;51.948;6.132;2022-09-09T01:20:14;5.00;;;1.98;;
48578;SDS011;34357;51.948;6.132;2022-09-09T01:28:33;1.48;;;1.33;;
48578;SDS011;34357;51.948;6.132;2022-09-09T01:31:06;2.00;;;1.20;;
48578;SDS011;34357;51.948;6.132;2022-09-09T01:33:41;3.28;;;1.52;;
48578;SDS011;34357;51.948;6.132;2022-09-09T01:36:08;3.63;;;1.38;;
48578;SDS011;34357;51.948;6.132;2022-09-09T01:38:45;3.17;;;1.42;;
48578;SDS011;34357;51.948;6.132;2022-09-09T01:41:11;3.38;;;1.90;;
48578;SDS011;34357;51.948;6.132;2022-09-09T01:43:46;3.63;;;1.95;;
48578;SDS011;34357;51.948;6.132;2022-09-09T01:46:12;2.97;;;1.90;;
48578;SDS011;34357;51.948;6.132;2022-09-09T01:48:40;7.25;;;2.25;;
48578;SDS011;34357;51.948;6.132;2022-09-09T01:51:09;3.83;;;2.28;;
48578;SDS011;34357;51.948;6.132;2022-09-09T01:53:35;4.45;;;2.58;;
48578;SDS011;34357;51.948;6.132;2022-09-09T01:56:05;7.72;;;3.00;;
48578;SDS011;34357;51.948;6.132;2022-09-09T01:58:50;3.03;;;2.55;;
48578;SDS011;34357;51.948;6.132;2022-09-09T02:01:49;6.00;;;3.63;;
48578;SDS011;34357;51.948;6.132;2022-09-09T02:04:27;3.47;;;2.80;;
48578;SDS011;34357;51.948;6.132;2022-09-09T02:10:06;6.78;;;2.70;;
48578;SDS011;34357;51.948;6.132;2022-09-09T02:12:40;5.53;;;2.63;;
48578;SDS011;34357;51.948;6.132;2022-09-09T02:15:13;5.88;;;2.80;;
48578;SDS011;34357;51.948;6.132;2022-09-09T02:17:54;6.10;;;3.00;;
48578;SDS011;34357;51.948;6.132;2022-09-09T02:20:23;5.20;;;3.10;;
48578;SDS011;34357;51.948;6.132;2022-09-09T02:22:57;5.72;;;2.85;;
48578;SDS011;34357;51.948;6.132;2022-09-09T02:25:26;6.13;;;2.92;;
48578;SDS011;34357;51.948;6.132;2022-09-09T02:28:00;3.78;;;2.40;;
48578;SDS011;34357;51.948;6.132;2022-09-09T02:30:28;3.05;;;2.55;;
48578;SDS011;34357;51.948;6.132;2022-09-09T02:32:58;5.25;;;2.83;;
48578;SDS011;34357;51.948;6.132;2022-09-09T02:35:46;6.20;;;2.70;;
48578;SDS011;34357;51.948;6.132;2022-09-09T02:38:17;5.45;;;2.75;;
48578;SDS011;34357;51.948;6.132;2022-09-09T02:40:55;5.35;;;2.35;;
48578;SDS011;34357;51.948;6.132;2022-09-09T02:43:20;4.32;;;2.50;;
48578;SDS011;34357;51.948;6.132;2022-09-09T02:51:02;5.35;;;2.55;;
48578;SDS011;34357;51.948;6.132;2022-09-09T02:54:18;5.60;;;2.65;;
48578;SDS011;34357;51.948;6.132;2022-09-09T02:59:37;10.50;;;3.55;;
48578;SDS011;34357;51.948;6.132;2022-09-09T03:02:04;5.22;;;3.30;;
48578;SDS011;34357;51.948;6.132;2022-09-09T03:04:31;8.07;;;3.50;;
48578;SDS011;34357;51.948;6.132;2022-09-09T03:06:57;6.78;;;3.40;;
48578;SDS011;34357;51.948;6.132;2022-09-09T03:09:24;7.00;;;4.05;;
48578;SDS011;34357;51.948;6.132;2022-09-09T03:11:52;5.95;;;4.32;;
48578;SDS011;34357;51.948;6.132;2022-09-09T03:14:18;7.15;;;3.70;;
48578;SDS011;34357;51.948;6.132;2022-09-09T03:16:47;6.90;;;4.28;;
48578;SDS011;34357;51.948;6.132;2022-09-09T03:19:13;8.63;;;4.40;;
48578;SDS011;34357;51.948;6.132;2022-09-09T03:21:40;10.32;;;4.90;;
48578;SDS011;34357;51.948;6.132;2022-09-09T03:24:05;10.55;;;4.78;;
48578;SDS011;34357;51.948;6.132;2022-09-09T03:26:32;10.75;;;6.05;;
48578;SDS011;34357;51.948;6.132;2022-09-09T03:28:58;9.55;;;5.40;;
48578;SDS011;34357;51.948;6.132;2022-09-09T03:31:26;9.23;;;5.53;;
48578;SDS011;34357;51.948;6.132;2022-09-09T03:33:56;8.13;;;5.60;;
48578;SDS011;34357;51.948;6.132;2022-09-09T03:36:25;10.73;;;5.00;;
48578;SDS011;34357;51.948;6.132;2022-09-09T03:38:52;8.70;;;5.28;;
48578;SDS011;34357;51.948;6.132;2022-09-09T03:41:20;9.35;;;5.60;;
48578;SDS011;34357;51.948;6.132;2022-09-09T03:43:50;10.27;;;5.53;;
48578;SDS011;34357;51.948;6.132;2022-09-09T03:46:17;9.18;;;5.70;;
48578;SDS011;34357;51.948;6.132;2022-09-09T03:48:43;11.23;;;5.90;;
48578;SDS011;34357;51.948;6.132;2022-09-09T03:51:09;18.05;;;7.25;;
48578;SDS011;34357;51.948;6.132;2022-09-09T03:53:36;10.88;;;6.57;;
48578;SDS011;34357;51.948;6.132;2022-09-09T03:56:03;10.98;;;6.40;;
48578;SDS011;34357;51.948;6.132;2022-09-09T03:58:31;10.07;;;6.85;;
48578;SDS011;34357;51.948;6.132;2022-09-09T04:01:06;12.38;;;7.10;;
48578;SDS011;34357;51.948;6.132;2022-09-09T04:03:34;13.02;;;7.47;;
48578;SDS011;34357;51.948;6.132;2022-09-09T04:06:01;15.30;;;8.30;;
48578;SDS011;34357;51.948;6.132;2022-09-09T04:08:29;18.38;;;8.52;;
48578;SDS011;34357;51.948;6.132;2022-09-09T04:10:59;16.70;;;7.75;;
48578;SDS011;34357;51.948;6.132;2022-09-09T04:13:27;15.13;;;7.45;;
48578;SDS011;34357;51.948;6.132;2022-09-09T04:15:56;17.35;;;7.60;;
48578;SDS011;34357;51.948;6.132;2022-09-09T04:18:23;17.52;;;7.13;;
48578;SDS011;34357;51.948;6.132;2022-09-09T04:20:51;15.60;;;7.10;;
48578;SDS011;34357;51.948;6.132;2022-09-09T04:23:20;16.80;;;7.32;;
48578;SDS011;34357;51.948;6.132;2022-09-09T04:25:47;15.85;;;7.30;;
48578;SDS011;34357;51.948;6.132;2022-09-09T04:28:14;13.48;;;6.53;;
48578;SDS011;34357;51.948;6.132;2022-09-09T04:30:42;14.00;;;6.45;;
48578;SDS011;34357;51.948;6.132;2022-09-09T04:33:08;14.48;;;6.30;;
48578;SDS011;34357;51.948;6.132;2022-09-09T04:35:35;11.23;;;6.47;;
48578;SDS011;34357;51.948;6.132;2022-09-09T04:38:02;13.77;;;6.72;;
48578;SDS011;34357;51.948;6.132;2022-09-09T04:40:30;17.45;;;7.40;;
48578;SDS011;34357;51.948;6.132;2022-09-09T04:43:00;15.63;;;6.75;;
48578;SDS011;34357;51.948;6.132;2022-09-09T04:45:31;13.80;;;7.05;;
48578;SDS011;34357;51.948;6.132;2022-09-09T04:47:57;12.27;;;6.55;;
48578;SDS011;34357;51.948;6.132;2022-09-09T04:50:23;15.10;;;6.82;;
48578;SDS011;34357;51.948;6.132;2022-09-09T04:52:59;11.40;;;6.47;;
48578;SDS011;34357;51.948;6.132;2022-09-09T04:55:27;16.02;;;6.88;;
48578;SDS011;34357;51.948;6.132;2022-09-09T04:57:52;12.07;;;5.85;;
48578;SDS011;34357;51.948;6.132;2022-09-09T05:00:19;15.55;;;6.28;;
48578;SDS011;34357;51.948;6.132;2022-09-09T05:02:46;12.40;;;5.35;;
48578;SDS011;34357;51.948;6.132;2022-09-09T05:05:12;8.40;;;5.90;;
48578;SDS011;34357;51.948;6.132;2022-09-09T05:07:39;11.98;;;6.10;;
48578;SDS011;34357;51.948;6.132;2022-09-09T05:10:06;14.70;;;5.78;;
48578;SDS011;34357;51.948;6.132;2022-09-09T05:12:32;12.15;;;5.57;;
48578;SDS011;34357;51.948;6.132;2022-09-09T05:14:58;13.10;;;5.80;;
48578;SDS011;34357;51.948;6.132;2022-09-09T05:17:24;13.90;;;5.30;;
48578;SDS011;34357;51.948;6.132;2022-09-09T05:19:50;14.85;;;5.53;;
48578;SDS011;34357;51.948;6.132;2022-09-09T05:22:19;10.25;;;5.05;;
48578;SDS011;34357;51.948;6.132;2022-09-09T05:24:46;12.73;;;5.32;;
48578;SDS011;34357;51.948;6.132;2022-09-09T05:27:13;11.98;;;5.32;;
48578;SDS011;34357;51.948;6.132;2022-09-09T05:29:39;11.43;;;4.75;;
48578;SDS011;34357;51.948;6.132;2022-09-09T05:32:08;14.88;;;5.32;;
48578;SDS011;34357;51.948;6.132;2022-09-09T05:34:35;15.60;;;5.40;;
48578;SDS011;34357;51.948;6.132;2022-09-09T05:37:03;8.98;;;4.50;;
48578;SDS011;34357;51.948;6.132;2022-09-09T05:39:30;13.38;;;5.05;;
48578;SDS011;34357;51.948;6.132;2022-09-09T05:41:58;8.63;;;4.22;;
48578;SDS011;34357;51.948;6.132;2022-09-09T05:44:24;12.55;;;4.90;;
48578;SDS011;34357;51.948;6.132;2022-09-09T05:46:53;10.95;;;4.45;;
48578;SDS011;34357;51.948;6.132;2022-09-09T05:49:20;10.57;;;4.78;;
48578;SDS011;34357;51.948;6.132;2022-09-09T05:51:47;12.02;;;4.72;;
48578;SDS011;34357;51.948;6.132;2022-09-09T05:54:15;10.18;;;4.50;;
48578;SDS011;34357;51.948;6.132;2022-09-09T05:56:44;10.80;;;4.10;;
48578;SDS011;34357;51.948;6.132;2022-09-09T05:59:10;12.38;;;4.32;;
48578;SDS011;34357;51.948;6.132;2022-09-09T06:01:38;13.02;;;4.72;;
48578;SDS011;34357;51.948;6.132;2022-09-09T06:04:10;15.60;;;4.45;;
48578;SDS011;34357;51.948;6.132;2022-09-09T06:06:38;12.45;;;4.35;;
48578;SDS011;34357;51.948;6.132;2022-09-09T06:09:11;14.82;;;3.95;;
48578;SDS011;34357;51.948;6.132;2022-09-09T06:11:41;13.55;;;3.97;;
48578;SDS011;34357;51.948;6.132;2022-09-09T06:14:07;7.18;;;3.45;;
48578;SDS011;34357;51.948;6.132;2022-09-09T06:16:34;8.77;;;3.40;;
48578;SDS011;34357;51.948;6.132;2022-09-09T06:19:00;12.88;;;3.80;;
48578;SDS011;34357;51.948;6.132;2022-09-09T06:21:30;12.48;;;3.45;;
48578;SDS011;34357;51.948;6.132;2022-09-09T06:23:59;7.88;;;3.50;;
48578;SDS011;34357;51.948;6.132;2022-09-09T06:26:35;13.80;;;3.70;;
48578;SDS011;34357;51.948;6.132;2022-09-09T06:29:03;12.70;;;3.70;;
48578;SDS011;34357;51.948;6.132;2022-09-09T06:31:31;10.82;;;3.50;;
48578;SDS011;34357;51.948;6.132;2022-09-09T06:34:05;8.18;;;3.28;;
48578;SDS011;34357;51.948;6.132;2022-09-09T06:36:33;10.77;;;3.00;;
48578;SDS011;34357;51.948;6.132;2022-09-09T06:39:02;9.55;;;2.80;;
48578;SDS011;34357;51.948;6.132;2022-09-09T06:41:30;7.63;;;2.40;;
48578;SDS011;34357;51.948;6.132;2022-09-09T06:43:58;13.40;;;2.78;;
48578;SDS011;34357;51.948;6.132;2022-09-09T06:46:40;16.80;;;2.97;;
48578;SDS011;34357;51.948;6.132;2022-09-09T06:49:08;9.57;;;2.85;;
48578;SDS011;34357;51.948;6.132;2022-09-09T06:51:36;14.40;;;2.70;;
48578;SDS011;34357;51.948;6.132;2022-09-09T06:54:08;14.13;;;2.83;;
48578;SDS011;34357;51.948;6.132;2022-09-09T06:56:35;12.38;;;3.08;;
48578;SDS011;34357;51.948;6.132;2022-09-09T06:59:08;11.45;;;2.92;;
48578;SDS011;34357;51.948;6.132;2022-09-09T07:01:36;13.20;;;3.03;;
48578;SDS011;34357;51.948;6.132;2022-09-09T07:04:07;14.07;;;2.70;;
48578;SDS011;34357;51.948;6.132;2022-09-09T07:06:36;9.38;;;2.72;;
48578;SDS011;34357;51.948;6.132;2022-09-09T07:09:04;16.75;;;3.05;;
48578;SDS011;34357;51.948;6.132;2022-09-09T07:11:39;12.30;;;3.05;;
48578;SDS011;34357;51.948;6.132;2022-09-09T07:14:07;13.77;;;3.50;;
48578;SDS011;34357;51.948;6.132;2022-09-09T07:16:34;9.38;;;2.70;;
48578;SDS011;34357;51.948;6.132;2022-09-09T07:19:02;11.82;;;2.97;;
48578;SDS011;34357;51.948;6.132;2022-09-09T07:21:29;9.65;;;2.80;;
48578;SDS011;34357;51.948;6.132;2022-09-09T07:23:57;14.65;;;3.20;;
48578;SDS011;34357;51.948;6.132;2022-09-09T07:26:24;13.23;;;3.08;;
48578;SDS011;34357;51.948;6.132;2022-09-09T07:28:53;8.45;;;3.17;;
48578;SDS011;34357;51.948;6.132;2022-09-09T07:31:21;11.52;;;3.00;;
48578;SDS011;34357;51.948;6.132;2022-09-09T07:33:52;13.93;;;2.92;;
48578;SDS011;34357;51.948;6.132;2022-09-09T07:38:53;14.85;;;3.20;;
48578;SDS011;34357;51.948;6.132;2022-09-09T07:41:23;13.60;;;2.97;;
48578;SDS011;34357;51.948;6.132;2022-09-09T07:43:51;9.48;;;2.90;;
48578;SDS011;34357;51.948;6.132;2022-09-09T07:46:20;12.07;;;2.30;;
48578;SDS011;34357;51.948;6.132;2022-09-09T07:48:48;14.02;;;2.90;;
48578;SDS011;34357;51.948;6.132;2022-09-09T07:51:31;7.45;;;2.45;;
48578;SDS011;34357;51.948;6.132;2022-09-09T07:54:00;6.43;;;2.30;;
48578;SDS011;34357;51.948;6.132;2022-09-09T07:56:29;13.82;;;3.03;;
48578;SDS011;34357;51.948;6.132;2022-09-09T07:58:56;17.75;;;3.08;;
48578;SDS011;34357;51.948;6.132;2022-09-09T08:01:34;15.70;;;2.38;;
48578;SDS011;34357;51.948;6.132;2022-09-09T08:04:05;11.43;;;2.72;;
48578;SDS011;34357;51.948;6.132;2022-09-09T08:06:42;10.60;;;2.00;;
48578;SDS011;34357;51.948;6.132;2022-09-09T08:09:13;11.48;;;2.75;;
48578;SDS011;34357;51.948;6.132;2022-09-09T08:11:41;10.85;;;2.90;;
48578;SDS011;34357;51.948;6.132;2022-09-09T08:14:08;13.68;;;2.50;;
48578;SDS011;34357;51.948;6.132;2022-09-09T08:16:36;7.72;;;1.83;;
48578;SDS011;34357;51.948;6.132;2022-09-09T08:19:04;12.85;;;2.22;;
48578;SDS011;34357;51.948;6.132;2022-09-09T08:21:32;11.05;;;2.08;;
48578;SDS011;34357;51.948;6.132;2022-09-09T08:24:01;14.65;;;2.55;;
48578;SDS011;34357;51.948;6.132;2022-09-09T08:26:29;7.13;;;2.00;;
48578;SDS011;34357;51.948;6.132;2022-09-09T08:28:58;9.60;;;2.13;;
48578;SDS011;34357;51.948;6.132;2022-09-09T08:31:26;8.85;;;2.05;;
48578;SDS011;34357;51.948;6.132;2022-09-09T08:36:25;11.30;;;2.80;;
48578;SDS011;34357;51.948;6.132;2022-09-09T08:38:53;8.95;;;2.80;;
48578;SDS011;34357;51.948;6.132;2022-09-09T08:52:18;13.25;;;2.10;;
48578;SDS011;34357;51.948;6.132;2022-09-09T08:54:48;11.90;;;2.53;;
48578;SDS011;34357;51.948;6.132;2022-09-09T08:57:19;11.88;;;2.70;;
48578;SDS011;34357;51.948;6.132;2022-09-09T08:59:52;12.90;;;2.40;;
48578;SDS011;34357;51.948;6.132;2022-09-09T09:07:47;12.38;;;2.53;;
48578;SDS011;34357;51.948;6.132;2022-09-09T09:13:00;11.57;;;2.85;;
48578;SDS011;34357;51.948;6.132;2022-09-09T09:15:31;11.02;;;2.25;;
48578;SDS011;34357;51.948;6.132;2022-09-09T09:18:05;7.70;;;2.00;;
48578;SDS011;34357;51.948;6.132;2022-09-09T09:20:44;7.82;;;2.30;;
48578;SDS011;34357;51.948;6.132;2022-09-09T09:23:31;11.02;;;2.10;;
48578;SDS011;34357;51.948;6.132;2022-09-09T09:26:06;6.10;;;1.98;;
48578;SDS011;34357;51.948;6.132;2022-09-09T09:28:35;5.75;;;1.63;;
48578;SDS011;34357;51.948;6.132;2022-09-09T09:31:12;13.43;;;2.30;;
48578;SDS011;34357;51.948;6.132;2022-09-09T09:36:42;9.65;;;2.05;;
48578;SDS011;34357;51.948;6.132;2022-09-09T09:39:24;8.60;;;1.90;;
48578;SDS011;34357;51.948;6.132;2022-09-09T09:41:53;10.15;;;2.25;;
48578;SDS011;34357;51.948;6.132;2022-09-09T09:47:05;4.65;;;1.20;;
48578;SDS011;34357;51.948;6.132;2022-09-09T09:49:39;8.82;;;2.00;;
48578;SDS011;34357;51.948;6.132;2022-09-09T09:52:17;11.13;;;1.80;;
48578;SDS011;34357;51.948;6.132;2022-09-09T09:54:50;7.82;;;1.67;;
48578;SDS011;34357;51.948;6.132;2022-09-09T09:57:22;6.45;;;1.30;;
48578;SDS011;34357;51.948;6.132;2022-09-09T10:00:01;9.57;;;2.05;;
48578;SDS011;34357;51.948;6.132;2022-09-09T10:02:46;11.80;;;2.72;;
48578;SDS011;34357;51.948;6.132;2022-09-09T10:05:31;8.27;;;1.23;;
48578;SDS011;34357;51.948;6.132;2022-09-09T10:08:08;10.40;;;1.80;;
48578;SDS011;34357;51.948;6.132;2022-09-09T10:10:42;9.02;;;1.90;;
48578;SDS011;34357;51.948;6.132;2022-09-09T10:19:04;10.57;;;1.92;;
48578;SDS011;34357;51.948;6.132;2022-09-09T10:24:39;9.00;;;1.83;;
48578;SDS011;34357;51.948;6.132;2022-09-09T10:30:20;11.50;;;1.70;;
48578;SDS011;34357;51.948;6.132;2022-09-09T10:32:50;8.02;;;1.75;;
48578;SDS011;34357;51.948;6.132;2022-09-09T10:51:31;7.05;;;1.50;;
48578;SDS011;34357;51.948;6.132;2022-09-09T10:57:07;7.97;;;1.80;;
48578;SDS011;34357;51.948;6.132;2022-09-09T10:59:44;9.60;;;1.77;;
48578;SDS011;34357;51.948;6.132;2022-09-09T11:02:25;7.93;;;1.67;;
48578;SDS011;34357;51.948;6.132;2022-09-09T11:07:37;11.18;;;1.67;;
48578;SDS011;34357;51.948;6.132;2022-09-09T11:10:51;11.68;;;2.22;;
48578;SDS011;34357;51.948;6.132;2022-09-09T11:13:08;10.38;;;1.60;;
48578;SDS011;34357;51.948;6.132;2022-09-09T11:15:52;8.80;;;1.60;;
48578;SDS011;34357;51.948;6.132;2022-09-09T11:18:23;8.60;;;1.42;;
48578;SDS011;34357;51.948;6.132;2022-09-09T11:20:55;7.00;;;1.70;;
48578;SDS011;34357;51.948;6.132;2022-09-09T11:23:33;10.00;;;1.50;;
48578;SDS011;34357;51.948;6.132;2022-09-09T11:26:05;7.43;;;1.50;;
48578;SDS011;34357;51.948;6.132;2022-09-09T11:34:55;6.82;;;1.73;;
48578;SDS011;34357;51.948;6.132;2022-09-09T11:40:17;9.35;;;1.58;;
48578;SDS011;34357;51.948;6.132;2022-09-09T11:43:02;6.63;;;1.35;;
48578;SDS011;34357;51.948;6.132;2022-09-09T11:45:31;9.60;;;1.77;;
48578;SDS011;34357;51.948;6.132;2022-09-09T11:48:00;7.97;;;1.40;;
48578;SDS011;34357;51.948;6.132;2022-09-09T11:50:28;4.82;;;1.17;;
48578;SDS011;34357;51.948;6.132;2022-09-09T11:53:29;5.18;;;1.15;;
48578;SDS011;34357;51.948;6.132;2022-09-09T11:55:59;5.93;;;1.55;;
48578;SDS011;34357;51.948;6.132;2022-09-09T11:58:26;10.15;;;2.00;;
48578;SDS011;34357;51.948;6.132;2022-09-09T12:00:57;9.18;;;2.20;;
48578;SDS011;34357;51.948;6.132;2022-09-09T12:05:57;5.18;;;1.60;;
48578;SDS011;34357;51.948;6.132;2022-09-09T12:08:26;10.95;;;1.65;;
48578;SDS011;34357;51.948;6.132;2022-09-09T12:10:55;7.32;;;1.88;;
48578;SDS011;34357;51.948;6.132;2022-09-09T12:13:23;8.13;;;1.48;;
48578;SDS011;34357;51.948;6.132;2022-09-09T12:15:54;7.15;;;1.67;;
48578;SDS011;34357;51.948;6.132;2022-09-09T12:18:34;7.07;;;1.65;;
48578;SDS011;34357;51.948;6.132;2022-09-09T12:26:22;6.72;;;1.63;;
48578;SDS011;34357;51.948;6.132;2022-09-09T12:29:01;10.23;;;1.75;;
48578;SDS011;34357;51.948;6.132;2022-09-09T12:31:39;5.30;;;1.88;;
48578;SDS011;34357;51.948;6.132;2022-09-09T12:34:36;10.40;;;1.75;;
48578;SDS011;34357;51.948;6.132;2022-09-09T12:40:00;4.82;;;1.45;;
48578;SDS011;34357;51.948;6.132;2022-09-09T12:42:31;6.13;;;1.60;;
48578;SDS011;34357;51.948;6.132;2022-09-09T12:45:02;5.50;;;1.48;;
48578;SDS011;34357;51.948;6.132;2022-09-09T12:50:16;5.80;;;1.85;;
48578;SDS011;34357;51.948;6.132;2022-09-09T12:52:43;6.80;;;2.05;;
48578;SDS011;34357;51.948;6.132;2022-09-09T12:55:16;8.20;;;2.35;;
48578;SDS011;34357;51.948;6.132;2022-09-09T12:57:46;6.18;;;1.70;;
48578;SDS011;34357;51.948;6.132;2022-09-09T13:00:20;6.15;;;1.40;;
48578;SDS011;34357;51.948;6.132;2022-09-09T13:02:49;5.00;;;1.77;;
48578;SDS011;34357;51.948;6.132;2022-09-09T13:05:26;6.85;;;1.77;;
48578;SDS011;34357;51.948;6.132;2022-09-09T13:08:06;6.43;;;1.90;;
48578;SDS011;34357;51.948;6.132;2022-09-09T13:10:37;7.43;;;1.60;;
48578;SDS011;34357;51.948;6.132;2022-09-09T13:13:15;3.30;;;1.50;;
48578;SDS011;34357;51.948;6.132;2022-09-09T13:15:48;4.60;;;1.70;;
48578;SDS011;34357;51.948;6.132;2022-09-09T13:18:21;8.48;;;2.20;;
48578;SDS011;34357;51.948;6.132;2022-09-09T13:20:49;8.38;;;1.92;;
48578;SDS011;34357;51.948;6.132;2022-09-09T13:23:16;8.38;;;2.08;;
48578;SDS011;34357;51.948;6.132;2022-09-09T13:25:55;10.25;;;1.95;;
48578;SDS011;34357;51.948;6.132;2022-09-09T13:28:23;6.88;;;1.60;;
48578;SDS011;34357;51.948;6.132;2022-09-09T13:33:32;7.65;;;2.20;;
48578;SDS011;34357;51.948;6.132;2022-09-09T13:36:01;6.90;;;2.13;;
48578;SDS011;34357;51.948;6.132;2022-09-09T13:38:38;4.82;;;1.58;;
48578;SDS011;34357;51.948;6.132;2022-09-09T13:41:19;9.05;;;2.00;;
48578;SDS011;34357;51.948;6.132;2022-09-09T13:43:59;7.25;;;1.77;;
48578;SDS011;34357;51.948;6.132;2022-09-09T13:51:44;6.88;;;2.10;;
48578;SDS011;34357;51.948;6.132;2022-09-09T13:54:15;6.93;;;1.90;;
48578;SDS011;34357;51.948;6.132;2022-09-09T13:56:43;7.78;;;2.13;;
48578;SDS011;34357;51.948;6.132;2022-09-09T13:59:10;5.72;;;1.75;;
48578;SDS011;34357;51.948;6.132;2022-09-09T14:01:38;7.15;;;2.10;;
48578;SDS011;34357;51.948;6.132;2022-09-09T14:04:03;10.10;;;1.88;;
48578;SDS011;34357;51.948;6.132;2022-09-09T14:06:31;6.13;;;2.10;;
48578;SDS011;34357;51.948;6.132;2022-09-09T14:08:57;7.25;;;2.33;;
48578;SDS011;34357;51.948;6.132;2022-09-09T14:11:23;8.07;;;2.67;;
48578;SDS011;34357;51.948;6.132;2022-09-09T14:13:49;10.70;;;3.03;;
48578;SDS011;34357;51.948;6.132;2022-09-09T14:16:16;8.73;;;3.40;;
48578;SDS011;34357;51.948;6.132;2022-09-09T14:18:43;10.68;;;3.47;;
48578;SDS011;34357;51.948;6.132;2022-09-09T14:21:09;11.18;;;4.00;;
48578;SDS011;34357;51.948;6.132;2022-09-09T14:23:36;13.90;;;4.63;;
48578;SDS011;34357;51.948;6.132;2022-09-09T14:26:03;14.05;;;4.65;;
48578;SDS011;34357;51.948;6.132;2022-09-09T14:28:30;9.48;;;4.57;;
48578;SDS011;34357;51.948;6.132;2022-09-09T14:30:58;17.23;;;6.18;;
48578;SDS011;34357;51.948;6.132;2022-09-09T14:33:28;11.25;;;5.70;;
48578;SDS011;34357;51.948;6.132;2022-09-09T14:36:02;18.15;;;6.25;;
48578;SDS011;34357;51.948;6.132;2022-09-09T14:38:29;15.30;;;5.60;;
48578;SDS011;34357;51.948;6.132;2022-09-09T14:40:56;14.68;;;5.15;;
48578;SDS011;34357;51.948;6.132;2022-09-09T14:43:23;13.43;;;5.95;;
48578;SDS011;34357;51.948;6.132;2022-09-09T14:45:49;14.43;;;6.00;;
48578;SDS011;34357;51.948;6.132;2022-09-09T14:48:16;13.32;;;4.35;;
48578;SDS011;34357;51.948;6.132;2022-09-09T14:50:42;7.63;;;3.83;;
48578;SDS011;34357;51.948;6.132;2022-09-09T14:53:08;12.18;;;4.03;;
48578;SDS011;34357;51.948;6.132;2022-09-09T14:55:35;8.18;;;3.17;;
48578;SDS011;34357;51.948;6.132;2022-09-09T14:58:01;9.88;;;3.30;;
48578;SDS011;34357;51.948;6.132;2022-09-09T15:00:27;9.32;;;3.00;;
48578;SDS011;34357;51.948;6.132;2022-09-09T15:02:53;8.18;;;2.80;;
48578;SDS011;34357;51.948;6.132;2022-09-09T15:05:19;6.45;;;2.72;;
48578;SDS011;34357;51.948;6.132;2022-09-09T15:07:45;10.38;;;2.70;;
48578;SDS011;34357;51.948;6.132;2022-09-09T15:10:11;7.55;;;3.00;;
48578;SDS011;34357;51.948;6.132;2022-09-09T15:12:37;6.15;;;2.65;;
48578;SDS011;34357;51.948;6.132;2022-09-09T15:15:04;8.75;;;2.85;;
48578;SDS011;34357;51.948;6.132;2022-09-09T15:17:32;9.82;;;2.92;;
48578;SDS011;34357;51.948;6.132;2022-09-09T15:19:58;7.50;;;2.53;;
48578;SDS011;34357;51.948;6.132;2022-09-09T15:22:24;8.35;;;2.28;;
48578;SDS011;34357;51.948;6.132;2022-09-09T15:24:50;7.63;;;2.92;;
48578;SDS011;34357;51.948;6.132;2022-09-09T15:27:15;8.10;;;3.03;;
48578;SDS011;34357;51.948;6.132;2022-09-09T15:29:42;7.20;;;1.75;;
48578;SDS011;34357;51.948;6.132;2022-09-09T15:32:08;7.35;;;2.50;;
48578;SDS011;34357;51.948;6.132;2022-09-09T15:34:34;5.97;;;2.00;;
48578;SDS011;34357;51.948;6.132;2022-09-09T15:36:59;5.75;;;1.60;;
48578;SDS011;34357;51.948;6.132;2022-09-09T15:39:25;5.80;;;1.90;;
48578;SDS011;34357;51.948;6.132;2022-09-09T15:41:51;12.43;;;2.30;;
48578;SDS011;34357;51.948;6.132;2022-09-09T15:44:17;6.45;;;1.88;;
48578;SDS011;34357;51.948;6.132;2022-09-09T15:46:50;5.65;;;1.85;;
48578;SDS011;34357;51.948;6.132;2022-09-09T15:51:50;5.43;;;1.60;;
48578;SDS011;34357;51.948;6.132;2022-09-09T15:54:21;6.15;;;1.73;;
48578;SDS011;34357;51.948;6.132;2022-09-09T15:56:51;7.50;;;1.95;;
48578;SDS011;34357;51.948;6.132;2022-09-09T15:59:19;4.43;;;1.95;;
48578;SDS011;34357;51.948;6.132;2022-09-09T16:01:45;7.07;;;2.13;;
48578;SDS011;34357;51.948;6.132;2022-09-09T16:04:11;12.27;;;3.00;;
48578;SDS011;34357;51.948;6.132;2022-09-09T16:06:37;6.03;;;1.80;;
48578;SDS011;34357;51.948;6.132;2022-09-09T16:09:04;6.50;;;1.67;;
48578;SDS011;34357;51.948;6.132;2022-09-09T16:11:32;7.53;;;1.98;;
48578;SDS011;34357;51.948;6.132;2022-09-09T16:14:01;5.53;;;1.70;;
48578;SDS011;34357;51.948;6.132;2022-09-09T16:16:28;4.75;;;1.80;;
48578;SDS011;34357;51.948;6.132;2022-09-09T16:18:56;4.40;;;1.67;;
48578;SDS011;34357;51.948;6.132;2022-09-09T16:21:27;9.15;;;2.13;;
48578;SDS011;34357;51.948;6.132;2022-09-09T16:23:54;5.93;;;1.85;;
48578;SDS011;34357;51.948;6.132;2022-09-09T16:26:21;11.50;;;2.20;;
48578;SDS011;34357;51.948;6.132;2022-09-09T16:28:48;7.38;;;1.88;;
48578;SDS011;34357;51.948;6.132;2022-09-09T16:31:15;8.15;;;2.03;;
48578;SDS011;34357;51.948;6.132;2022-09-09T16:33:43;5.70;;;1.67;;
48578;SDS011;34357;51.948;6.132;2022-09-09T16:36:10;5.82;;;1.98;;
48578;SDS011;34357;51.948;6.132;2022-09-09T16:38:38;7.32;;;2.10;;
48578;SDS011;34357;51.948;6.132;2022-09-09T16:41:05;3.85;;;1.42;;
48578;SDS011;34357;51.948;6.132;2022-09-09T16:43:32;4.68;;;0.90;;
48578;SDS011;34357;51.948;6.132;2022-09-09T16:46:00;3.88;;;0.95;;
48578;SDS011;34357;51.948;6.132;2022-09-09T16:48:32;1.98;;;0.63;;
48578;SDS011;34357;51.948;6.132;2022-09-09T16:51:05;3.08;;;0.90;;
48578;SDS011;34357;51.948;6.132;2022-09-09T16:53:35;4.63;;;1.27;;
48578;SDS011;34357;51.948;6.132;2022-09-09T16:56:07;4.32;;;1.52;;
48578;SDS011;34357;51.948;6.132;2022-09-09T16:58:34;5.82;;;1.45;;
48578;SDS011;34357;51.948;6.132;2022-09-09T17:01:00;5.60;;;1.50;;
48578;SDS011;34357;51.948;6.132;2022-09-09T17:03:28;4.85;;;1.45;;
48578;SDS011;34357;51.948;6.132;2022-09-09T17:05:54;8.27;;;2.13;;
48578;SDS011;34357;51.948;6.132;2022-09-09T17:08:20;6.10;;;2.00;;
48578;SDS011;34357;51.948;6.132;2022-09-09T17:10:45;7.45;;;2.55;;
48578;SDS011;34357;51.948;6.132;2022-09-09T17:13:12;7.75;;;2.30;;
48578;SDS011;34357;51.948;6.132;2022-09-09T17:15:39;4.10;;;2.53;;
48578;SDS011;34357;51.948;6.132;2022-09-09T17:18:08;8.00;;;3.58;;
48578;SDS011;34357;51.948;6.132;2022-09-09T17:20:37;8.60;;;3.63;;
48578;SDS011;34357;51.948;6.132;2022-09-09T17:23:05;6.75;;;3.80;;
48578;SDS011;34357;51.948;6.132;2022-09-09T17:25:31;11.10;;;5.05;;
48578;SDS011;34357;51.948;6.132;2022-09-09T17:27:57;7.78;;;5.00;;
48578;SDS011;34357;51.948;6.132;2022-09-09T17:30:23;6.65;;;4.70;;
48578;SDS011;34357;51.948;6.132;2022-09-09T17:32:49;12.30;;;5.22;;